sensor_id;sensor_type;location;lat;lon;timestamp;P1;durP1;ratioP1;P2;durP2;ratioP2
25946;SDS011;13745;51.470;9.894;2023-11-19T00:00:33;1.48;;;1.38;;
25946;SDS011;13745;51.470;9.894;2023-11-19T00:03:19;1.30;;;1.20;;
25946;SDS011;13745;51.470;9.894;2023-11-19T00:06:06;1.27;;;1.17;;
25946;SDS011;13745;51.470;9.894;2023-11-19T00:08:51;4.15;;;1.13;;
25946;SDS011;13745;51.470;9.894;2023-11-19T00:11:36;1.05;;;0.70;;
25946;SDS011;13745;51.470;9.894;2023-11-19T00:14:22;1.10;;;0.95;;
25946;SDS011;13745;51.470;9.894;2023-11-19T00:17:08;1.10;;;0.98;;
25946;SDS011;13745;51.470;9.894;2023-11-19T00:19:53;0.93;;;0.88;;
25946;SDS011;13745;51.470;9.894;2023-11-19T00:22:40;0.80;;;0.80;;
25946;SDS011;13745;51.470;9.894;2023-11-19T00:25:26;0.80;;;0.65;;
25946;SDS011;13745;51.470;9.894;2023-11-19T00:28:11;0.55;;;0.55;;
25946;SDS011;13745;51.470;9.894;2023-11-19T00:30:56;0.60;;;0.60;;
25946;SDS011;13745;51.470;9.894;2023-11-19T00:33:41;0.93;;;0.52;;
25946;SDS011;13745;51.470;9.894;2023-11-19T00:36:26;1.40;;;0.57;;
25946;SDS011;13745;51.470;9.894;2023-11-19T00:39:13;1.92;;;0.45;;
25946;SDS011;13745;51.470;9.894;2023-11-19T00:41:59;0.82;;;0.50;;
25946;SDS011;13745;51.470;9.894;2023-11-19T00:44:44;1.65;;;0.70;;
25946;SDS011;13745;51.470;9.894;2023-11-19T00:47:30;0.63;;;0.60;;
25946;SDS011;13745;51.470;9.894;2023-11-19T00:50:15;0.60;;;0.50;;
25946;SDS011;13745;51.470;9.894;2023-11-19T00:53:01;0.68;;;0.43;;
25946;SDS011;13745;51.470;9.894;2023-11-19T00:55:48;0.68;;;0.60;;
25946;SDS011;13745;51.470;9.894;2023-11-19T00:58:34;0.70;;;0.43;;
25946;SDS011;13745;51.470;9.894;2023-11-19T01:01:20;1.75;;;0.60;;
25946;SDS011;13745;51.470;9.894;2023-11-19T01:04:05;0.65;;;0.60;;
25946;SDS011;13745;51.470;9.894;2023-11-19T01:06:51;0.98;;;0.85;;
25946;SDS011;13745;51.470;9.894;2023-11-19T01:09:38;3.38;;;2.72;;
25946;SDS011;13745;51.470;9.894;2023-11-19T01:12:25;6.18;;;2.22;;
25946;SDS011;13745;51.470;9.894;2023-11-19T01:15:10;0.50;;;0.50;;
25946;SDS011;13745;51.470;9.894;2023-11-19T01:17:57;1.67;;;1.20;;
25946;SDS011;13745;51.470;9.894;2023-11-19T01:20:42;0.63;;;0.50;;
25946;SDS011;13745;51.470;9.894;2023-11-19T01:23:27;0.40;;;0.40;;
25946;SDS011;13745;51.470;9.894;2023-11-19T01:26:12;0.50;;;0.50;;
25946;SDS011;13745;51.470;9.894;2023-11-19T01:28:59;0.57;;;0.50;;
25946;SDS011;13745;51.470;9.894;2023-11-19T01:31:45;0.30;;;0.30;;
25946;SDS011;13745;51.470;9.894;2023-11-19T01:34:31;0.52;;;0.30;;
25946;SDS011;13745;51.470;9.894;2023-11-19T01:37:16;0.55;;;0.50;;
25946;SDS011;13745;51.470;9.894;2023-11-19T01:40:01;0.20;;;0.20;;
25946;SDS011;13745;51.470;9.894;2023-11-19T01:42:48;0.50;;;0.40;;
25946;SDS011;13745;51.470;9.894;2023-11-19T01:45:35;0.45;;;0.40;;
25946;SDS011;13745;51.470;9.894;2023-11-19T01:48:21;0.50;;;0.20;;
25946;SDS011;13745;51.470;9.894;2023-11-19T01:51:06;0.32;;;0.32;;
25946;SDS011;13745;51.470;9.894;2023-11-19T01:53:52;1.20;;;0.90;;
25946;SDS011;13745;51.470;9.894;2023-11-19T01:56:37;0.35;;;0.32;;
25946;SDS011;13745;51.470;9.894;2023-11-19T01:59:26;0.35;;;0.32;;
25946;SDS011;13745;51.470;9.894;2023-11-19T02:02:13;1.10;;;0.80;;
25946;SDS011;13745;51.470;9.894;2023-11-19T02:04:58;0.38;;;0.38;;
25946;SDS011;13745;51.470;9.894;2023-11-19T02:07:43;0.98;;;0.77;;
25946;SDS011;13745;51.470;9.894;2023-11-19T02:10:30;2.70;;;2.00;;
25946;SDS011;13745;51.470;9.894;2023-11-19T02:13:15;1.85;;;1.25;;
25946;SDS011;13745;51.470;9.894;2023-11-19T02:16:01;3.70;;;0.70;;
25946;SDS011;13745;51.470;9.894;2023-11-19T02:18:48;0.20;;;0.20;;
25946;SDS011;13745;51.470;9.894;2023-11-19T02:21:33;0.30;;;0.30;;
25946;SDS011;13745;51.470;9.894;2023-11-19T02:24:19;2.35;;;0.22;;
25946;SDS011;13745;51.470;9.894;2023-11-19T02:27:07;0.40;;;0.40;;
25946;SDS011;13745;51.470;9.894;2023-11-19T02:30:02;0.45;;;0.40;;
25946;SDS011;13745;51.470;9.894;2023-11-19T02:32:52;0.40;;;0.30;;
25946;SDS011;13745;51.470;9.894;2023-11-19T02:35:38;0.40;;;0.30;;
25946;SDS011;13745;51.470;9.894;2023-11-19T02:38:24;0.30;;;0.30;;
25946;SDS011;13745;51.470;9.894;2023-11-19T02:41:09;0.30;;;0.30;;
25946;SDS011;13745;51.470;9.894;2023-11-19T02:43:55;0.50;;;0.50;;
25946;SDS011;13745;51.470;9.894;2023-11-19T02:46:41;0.60;;;0.50;;
25946;SDS011;13745;51.470;9.894;2023-11-19T02:49:27;0.52;;;0.52;;
25946;SDS011;13745;51.470;9.894;2023-11-19T02:52:12;1.40;;;0.52;;
25946;SDS011;13745;51.470;9.894;2023-11-19T02:54:58;0.47;;;0.47;;
25946;SDS011;13745;51.470;9.894;2023-11-19T02:57:43;0.40;;;0.40;;
25946;SDS011;13745;51.470;9.894;2023-11-19T03:00:32;0.70;;;0.70;;
25946;SDS011;13745;51.470;9.894;2023-11-19T03:03:21;0.70;;;0.50;;
25946;SDS011;13745;51.470;9.894;2023-11-19T03:06:09;1.27;;;0.73;;
25946;SDS011;13745;51.470;9.894;2023-11-19T03:08:55;0.80;;;0.77;;
25946;SDS011;13745;51.470;9.894;2023-11-19T03:11:40;0.70;;;0.70;;
25946;SDS011;13745;51.470;9.894;2023-11-19T03:14:25;0.70;;;0.70;;
25946;SDS011;13745;51.470;9.894;2023-11-19T03:17:11;1.13;;;1.00;;
25946;SDS011;13745;51.470;9.894;2023-11-19T03:19:58;0.80;;;0.80;;
25946;SDS011;13745;51.470;9.894;2023-11-19T03:22:43;0.65;;;0.65;;
25946;SDS011;13745;51.470;9.894;2023-11-19T03:25:29;0.95;;;0.90;;
25946;SDS011;13745;51.470;9.894;2023-11-19T03:28:18;0.88;;;0.73;;
25946;SDS011;13745;51.470;9.894;2023-11-19T03:31:04;1.08;;;0.98;;
25946;SDS011;13745;51.470;9.894;2023-11-19T03:33:53;2.35;;;0.93;;
25946;SDS011;13745;51.470;9.894;2023-11-19T03:36:40;0.63;;;0.63;;
25946;SDS011;13745;51.470;9.894;2023-11-19T03:39:25;0.75;;;0.73;;
25946;SDS011;13745;51.470;9.894;2023-11-19T03:42:10;0.70;;;0.70;;
25946;SDS011;13745;51.470;9.894;2023-11-19T03:44:56;0.52;;;0.52;;
25946;SDS011;13745;51.470;9.894;2023-11-19T03:47:41;0.70;;;0.70;;
25946;SDS011;13745;51.470;9.894;2023-11-19T03:50:27;2.17;;;0.90;;
25946;SDS011;13745;51.470;9.894;2023-11-19T03:53:13;0.70;;;0.70;;
25946;SDS011;13745;51.470;9.894;2023-11-19T03:55:59;0.68;;;0.68;;
25946;SDS011;13745;51.470;9.894;2023-11-19T03:58:44;1.33;;;0.60;;
25946;SDS011;13745;51.470;9.894;2023-11-19T04:01:29;0.50;;;0.50;;
25946;SDS011;13745;51.470;9.894;2023-11-19T04:04:14;1.65;;;0.80;;
25946;SDS011;13745;51.470;9.894;2023-11-19T04:06:59;1.73;;;0.88;;
25946;SDS011;13745;51.470;9.894;2023-11-19T04:09:48;1.33;;;0.60;;
25946;SDS011;13745;51.470;9.894;2023-11-19T04:12:33;0.30;;;0.30;;
25946;SDS011;13745;51.470;9.894;2023-11-19T04:15:19;0.30;;;0.30;;
25946;SDS011;13745;51.470;9.894;2023-11-19T04:18:05;0.40;;;0.40;;
25946;SDS011;13745;51.470;9.894;2023-11-19T04:20:50;0.30;;;0.30;;
25946;SDS011;13745;51.470;9.894;2023-11-19T04:23:36;1.70;;;0.50;;
25946;SDS011;13745;51.470;9.894;2023-11-19T04:26:22;0.40;;;0.40;;
25946;SDS011;13745;51.470;9.894;2023-11-19T04:29:08;1.02;;;0.73;;
25946;SDS011;13745;51.470;9.894;2023-11-19T04:31:55;0.40;;;0.30;;
25946;SDS011;13745;51.470;9.894;2023-11-19T04:34:40;0.40;;;0.40;;
25946;SDS011;13745;51.470;9.894;2023-11-19T04:37:25;0.50;;;0.50;;
25946;SDS011;13745;51.470;9.894;2023-11-19T04:40:10;1.75;;;0.40;;
25946;SDS011;13745;51.470;9.894;2023-11-19T04:42:57;0.60;;;0.60;;
25946;SDS011;13745;51.470;9.894;2023-11-19T04:45:43;1.27;;;0.50;;
25946;SDS011;13745;51.470;9.894;2023-11-19T04:48:28;3.50;;;0.98;;
25946;SDS011;13745;51.470;9.894;2023-11-19T04:51:13;0.75;;;0.75;;
25946;SDS011;13745;51.470;9.894;2023-11-19T04:53:58;0.60;;;0.60;;
25946;SDS011;13745;51.470;9.894;2023-11-19T04:56:45;0.68;;;0.68;;
25946;SDS011;13745;51.470;9.894;2023-11-19T04:59:33;2.58;;;1.42;;
25946;SDS011;13745;51.470;9.894;2023-11-19T05:02:19;0.90;;;0.90;;
25946;SDS011;13745;51.470;9.894;2023-11-19T05:05:04;1.10;;;1.00;;
25946;SDS011;13745;51.470;9.894;2023-11-19T05:07:49;0.93;;;0.85;;
25946;SDS011;13745;51.470;9.894;2023-11-19T05:10:34;1.00;;;0.90;;
25946;SDS011;13745;51.470;9.894;2023-11-19T05:13:20;1.10;;;1.00;;
25946;SDS011;13745;51.470;9.894;2023-11-19T05:16:07;1.75;;;1.20;;
25946;SDS011;13745;51.470;9.894;2023-11-19T05:18:53;2.30;;;1.73;;
25946;SDS011;13745;51.470;9.894;2023-11-19T05:21:38;1.80;;;1.48;;
25946;SDS011;13745;51.470;9.894;2023-11-19T05:24:26;2.25;;;1.02;;
25946;SDS011;13745;51.470;9.894;2023-11-19T05:27:11;1.33;;;1.13;;
25946;SDS011;13745;51.470;9.894;2023-11-19T05:29:57;2.30;;;0.95;;
25946;SDS011;13745;51.470;9.894;2023-11-19T05:32:43;1.60;;;1.13;;
25946;SDS011;13745;51.470;9.894;2023-11-19T05:35:28;1.23;;;1.10;;
25946;SDS011;13745;51.470;9.894;2023-11-19T05:38:14;1.55;;;1.02;;
25946;SDS011;13745;51.470;9.894;2023-11-19T05:40:59;1.40;;;1.30;;
25946;SDS011;13745;51.470;9.894;2023-11-19T05:43:44;1.00;;;0.90;;
25946;SDS011;13745;51.470;9.894;2023-11-19T05:46:30;0.80;;;0.80;;
25946;SDS011;13745;51.470;9.894;2023-11-19T05:49:16;1.80;;;0.90;;
25946;SDS011;13745;51.470;9.894;2023-11-19T05:52:02;2.83;;;1.23;;
25946;SDS011;13745;51.470;9.894;2023-11-19T05:54:51;2.03;;;0.98;;
25946;SDS011;13745;51.470;9.894;2023-11-19T05:57:36;2.28;;;1.00;;
25946;SDS011;13745;51.470;9.894;2023-11-19T06:00:21;3.30;;;1.10;;
25946;SDS011;13745;51.470;9.894;2023-11-19T06:03:07;2.92;;;1.40;;
25946;SDS011;13745;51.470;9.894;2023-11-19T06:05:54;2.50;;;1.20;;
25946;SDS011;13745;51.470;9.894;2023-11-19T06:08:39;2.15;;;1.10;;
25946;SDS011;13745;51.470;9.894;2023-11-19T06:11:24;1.48;;;1.25;;
25946;SDS011;13745;51.470;9.894;2023-11-19T06:14:10;1.55;;;1.20;;
25946;SDS011;13745;51.470;9.894;2023-11-19T06:16:55;1.67;;;1.30;;
25946;SDS011;13745;51.470;9.894;2023-11-19T06:19:40;2.42;;;1.33;;
25946;SDS011;13745;51.470;9.894;2023-11-19T06:22:27;2.90;;;1.20;;
25946;SDS011;13745;51.470;9.894;2023-11-19T06:25:12;6.25;;;1.40;;
25946;SDS011;13745;51.470;9.894;2023-11-19T06:27:58;2.80;;;1.38;;
25946;SDS011;13745;51.470;9.894;2023-11-19T06:30:43;3.85;;;1.50;;
25946;SDS011;13745;51.470;9.894;2023-11-19T06:33:29;4.65;;;1.60;;
25946;SDS011;13745;51.470;9.894;2023-11-19T06:36:15;6.65;;;1.60;;
25946;SDS011;13745;51.470;9.894;2023-11-19T06:39:02;3.47;;;1.58;;
25946;SDS011;13745;51.470;9.894;2023-11-19T06:41:47;8.15;;;2.05;;
25946;SDS011;13745;51.470;9.894;2023-11-19T06:44:33;3.22;;;1.73;;
25946;SDS011;13745;51.470;9.894;2023-11-19T06:47:18;3.60;;;1.90;;
25946;SDS011;13745;51.470;9.894;2023-11-19T06:50:03;7.95;;;2.60;;
25946;SDS011;13745;51.470;9.894;2023-11-19T06:52:51;6.60;;;1.77;;
25946;SDS011;13745;51.470;9.894;2023-11-19T06:55:37;6.18;;;2.20;;
25946;SDS011;13745;51.470;9.894;2023-11-19T06:58:22;5.15;;;2.30;;
25946;SDS011;13745;51.470;9.894;2023-11-19T07:01:07;3.55;;;1.95;;
25946;SDS011;13745;51.470;9.894;2023-11-19T07:03:53;3.97;;;2.20;;
25946;SDS011;13745;51.470;9.894;2023-11-19T07:06:38;7.70;;;1.85;;
25946;SDS011;13745;51.470;9.894;2023-11-19T07:09:25;8.93;;;2.05;;
25946;SDS011;13745;51.470;9.894;2023-11-19T07:12:11;5.90;;;2.10;;
25946;SDS011;13745;51.470;9.894;2023-11-19T07:14:57;5.43;;;2.08;;
25946;SDS011;13745;51.470;9.894;2023-11-19T07:17:43;6.22;;;2.20;;
25946;SDS011;13745;51.470;9.894;2023-11-19T07:20:28;4.60;;;2.15;;
25946;SDS011;13745;51.470;9.894;2023-11-19T07:23:14;4.50;;;1.80;;
25946;SDS011;13745;51.470;9.894;2023-11-19T07:26:00;4.57;;;1.55;;
25946;SDS011;13745;51.470;9.894;2023-11-19T07:28:47;13.52;;;2.47;;
25946;SDS011;13745;51.470;9.894;2023-11-19T07:31:32;7.78;;;1.83;;
25946;SDS011;13745;51.470;9.894;2023-11-19T07:34:18;4.03;;;1.73;;
25946;SDS011;13745;51.470;9.894;2023-11-19T07:37:04;4.95;;;2.05;;
25946;SDS011;13745;51.470;9.894;2023-11-19T07:39:49;8.98;;;2.20;;
25946;SDS011;13745;51.470;9.894;2023-11-19T07:42:34;4.47;;;1.50;;
25946;SDS011;13745;51.470;9.894;2023-11-19T07:45:23;5.53;;;1.67;;
25946;SDS011;13745;51.470;9.894;2023-11-19T07:48:08;3.22;;;1.70;;
25946;SDS011;13745;51.470;9.894;2023-11-19T07:50:54;6.43;;;1.77;;
25946;SDS011;13745;51.470;9.894;2023-11-19T07:53:39;5.30;;;1.90;;
25946;SDS011;13745;51.470;9.894;2023-11-19T07:56:25;6.18;;;1.55;;
25946;SDS011;13745;51.470;9.894;2023-11-19T07:59:10;5.80;;;2.05;;
25946;SDS011;13745;51.470;9.894;2023-11-19T08:01:57;4.75;;;1.38;;
25946;SDS011;13745;51.470;9.894;2023-11-19T08:04:42;5.57;;;1.38;;
25946;SDS011;13745;51.470;9.894;2023-11-19T08:07:29;5.55;;;1.52;;
25946;SDS011;13745;51.470;9.894;2023-11-19T08:10:14;6.93;;;1.52;;
25946;SDS011;13745;51.470;9.894;2023-11-19T08:12:59;4.65;;;1.23;;
25946;SDS011;13745;51.470;9.894;2023-11-19T08:15:45;5.82;;;1.50;;
25946;SDS011;13745;51.470;9.894;2023-11-19T08:18:32;8.35;;;1.98;;
25946;SDS011;13745;51.470;9.894;2023-11-19T08:21:17;16.30;;;2.15;;
25946;SDS011;13745;51.470;9.894;2023-11-19T08:24:02;6.28;;;1.52;;
25946;SDS011;13745;51.470;9.894;2023-11-19T08:26:48;7.07;;;1.15;;
25946;SDS011;13745;51.470;9.894;2023-11-19T08:29:33;7.30;;;1.35;;
25946;SDS011;13745;51.470;9.894;2023-11-19T08:32:18;6.00;;;1.10;;
25946;SDS011;13745;51.470;9.894;2023-11-19T08:35:05;4.88;;;1.02;;
25946;SDS011;13745;51.470;9.894;2023-11-19T08:37:51;5.95;;;1.10;;
25946;SDS011;13745;51.470;9.894;2023-11-19T08:40:37;3.75;;;1.10;;
25946;SDS011;13745;51.470;9.894;2023-11-19T08:43:22;5.43;;;1.50;;
25946;SDS011;13745;51.470;9.894;2023-11-19T08:46:09;5.07;;;1.52;;
25946;SDS011;13745;51.470;9.894;2023-11-19T08:48:54;7.05;;;1.38;;
25946;SDS011;13745;51.470;9.894;2023-11-19T08:51:42;6.97;;;1.23;;
25946;SDS011;13745;51.470;9.894;2023-11-19T08:54:28;5.03;;;1.27;;
25946;SDS011;13745;51.470;9.894;2023-11-19T08:57:13;8.73;;;1.05;;
25946;SDS011;13745;51.470;9.894;2023-11-19T08:59:58;6.85;;;1.80;;
25946;SDS011;13745;51.470;9.894;2023-11-19T09:02:43;7.47;;;1.58;;
25946;SDS011;13745;51.470;9.894;2023-11-19T09:05:28;6.28;;;1.58;;
25946;SDS011;13745;51.470;9.894;2023-11-19T09:08:15;5.13;;;1.13;;
25946;SDS011;13745;51.470;9.894;2023-11-19T09:11:00;6.57;;;1.60;;
25946;SDS011;13745;51.470;9.894;2023-11-19T09:13:45;7.22;;;1.65;;
25946;SDS011;13745;51.470;9.894;2023-11-19T09:16:30;10.10;;;1.65;;
25946;SDS011;13745;51.470;9.894;2023-11-19T09:19:16;7.95;;;1.50;;
25946;SDS011;13745;51.470;9.894;2023-11-19T09:22:01;9.40;;;1.52;;
25946;SDS011;13745;51.470;9.894;2023-11-19T09:24:48;9.93;;;2.28;;
25946;SDS011;13745;51.470;9.894;2023-11-19T09:27:33;5.20;;;1.73;;
25946;SDS011;13745;51.470;9.894;2023-11-19T09:30:18;13.63;;;2.25;;
25946;SDS011;13745;51.470;9.894;2023-11-19T09:33:04;9.60;;;2.03;;
25946;SDS011;13745;51.470;9.894;2023-11-19T09:35:49;7.95;;;1.80;;
25946;SDS011;13745;51.470;9.894;2023-11-19T09:38:34;6.95;;;1.75;;
25946;SDS011;13745;51.470;9.894;2023-11-19T09:41:22;7.85;;;1.65;;
25946;SDS011;13745;51.470;9.894;2023-11-19T09:44:08;6.28;;;1.80;;
25946;SDS011;13745;51.470;9.894;2023-11-19T09:46:56;9.30;;;2.42;;
25946;SDS011;13745;51.470;9.894;2023-11-19T09:49:43;11.82;;;2.42;;
25946;SDS011;13745;51.470;9.894;2023-11-19T09:52:28;9.63;;;2.80;;
25946;SDS011;13745;51.470;9.894;2023-11-19T09:55:14;6.88;;;1.95;;
25946;SDS011;13745;51.470;9.894;2023-11-19T09:58:00;8.43;;;2.25;;
25946;SDS011;13745;51.470;9.894;2023-11-19T10:00:47;9.45;;;2.47;;
25946;SDS011;13745;51.470;9.894;2023-11-19T10:03:34;8.35;;;2.63;;
25946;SDS011;13745;51.470;9.894;2023-11-19T10:06:21;8.45;;;2.38;;
25946;SDS011;13745;51.470;9.894;2023-11-19T10:09:11;13.65;;;3.20;;
25946;SDS011;13745;51.470;9.894;2023-11-19T10:11:59;8.02;;;1.95;;
25946;SDS011;13745;51.470;9.894;2023-11-19T10:14:46;10.35;;;2.20;;
25946;SDS011;13745;51.470;9.894;2023-11-19T10:17:35;9.23;;;2.20;;
25946;SDS011;13745;51.470;9.894;2023-11-19T10:20:20;10.38;;;2.30;;
25946;SDS011;13745;51.470;9.894;2023-11-19T10:23:06;10.80;;;2.55;;
25946;SDS011;13745;51.470;9.894;2023-11-19T10:25:52;7.25;;;2.15;;
25946;SDS011;13745;51.470;9.894;2023-11-19T10:28:38;12.35;;;2.80;;
25946;SDS011;13745;51.470;9.894;2023-11-19T10:31:25;8.20;;;2.75;;
25946;SDS011;13745;51.470;9.894;2023-11-19T10:34:23;8.68;;;2.58;;
25946;SDS011;13745;51.470;9.894;2023-11-19T10:37:11;13.77;;;3.00;;
25946;SDS011;13745;51.470;9.894;2023-11-19T10:40:12;13.45;;;2.97;;
25946;SDS011;13745;51.470;9.894;2023-11-19T10:43:01;8.25;;;2.45;;
25946;SDS011;13745;51.470;9.894;2023-11-19T10:45:47;11.88;;;3.13;;
25946;SDS011;13745;51.470;9.894;2023-11-19T10:48:33;13.73;;;2.72;;
25946;SDS011;13745;51.470;9.894;2023-11-19T10:51:19;16.00;;;3.55;;
25946;SDS011;13745;51.470;9.894;2023-11-19T10:54:06;19.30;;;3.95;;
25946;SDS011;13745;51.470;9.894;2023-11-19T10:56:54;14.98;;;3.28;;
25946;SDS011;13745;51.470;9.894;2023-11-19T10:59:43;15.57;;;3.15;;
25946;SDS011;13745;51.470;9.894;2023-11-19T11:02:30;12.10;;;3.00;;
25946;SDS011;13745;51.470;9.894;2023-11-19T11:05:21;15.15;;;2.58;;
25946;SDS011;13745;51.470;9.894;2023-11-19T11:08:07;11.70;;;3.95;;
25946;SDS011;13745;51.470;9.894;2023-11-19T11:10:53;11.35;;;3.53;;
25946;SDS011;13745;51.470;9.894;2023-11-19T11:13:40;11.93;;;3.22;;
25946;SDS011;13745;51.470;9.894;2023-11-19T11:16:27;10.30;;;3.28;;
25946;SDS011;13745;51.470;9.894;2023-11-19T11:19:15;12.52;;;2.85;;
25946;SDS011;13745;51.470;9.894;2023-11-19T11:22:03;12.45;;;3.17;;
25946;SDS011;13745;51.470;9.894;2023-11-19T11:24:56;12.77;;;3.22;;
25946;SDS011;13745;51.470;9.894;2023-11-19T11:27:57;13.43;;;3.28;;
25946;SDS011;13745;51.470;9.894;2023-11-19T11:30:55;10.15;;;2.70;;
25946;SDS011;13745;51.470;9.894;2023-11-19T11:34:03;9.18;;;2.75;;
25946;SDS011;13745;51.470;9.894;2023-11-19T11:36:58;9.43;;;2.40;;
25946;SDS011;13745;51.470;9.894;2023-11-19T11:39:57;14.35;;;2.97;;
25946;SDS011;13745;51.470;9.894;2023-11-19T11:42:43;10.75;;;2.60;;
25946;SDS011;13745;51.470;9.894;2023-11-19T11:45:35;20.45;;;3.70;;
25946;SDS011;13745;51.470;9.894;2023-11-19T11:48:21;21.25;;;3.17;;
25946;SDS011;13745;51.470;9.894;2023-11-19T11:51:10;15.70;;;2.97;;
25946;SDS011;13745;51.470;9.894;2023-11-19T11:53:59;14.93;;;3.17;;
25946;SDS011;13745;51.470;9.894;2023-11-19T11:56:58;23.95;;;3.63;;
25946;SDS011;13745;51.470;9.894;2023-11-19T11:59:47;21.73;;;3.35;;
25946;SDS011;13745;51.470;9.894;2023-11-19T12:02:33;19.50;;;2.90;;
25946;SDS011;13745;51.470;9.894;2023-11-19T12:05:19;15.00;;;3.03;;
25946;SDS011;13745;51.470;9.894;2023-11-19T12:08:06;25.27;;;5.00;;
25946;SDS011;13745;51.470;9.894;2023-11-19T12:10:56;20.45;;;6.45;;
25946;SDS011;13745;51.470;9.894;2023-11-19T12:13:52;21.40;;;3.47;;
25946;SDS011;13745;51.470;9.894;2023-11-19T12:16:42;16.08;;;3.20;;
25946;SDS011;13745;51.470;9.894;2023-11-19T12:19:27;15.20;;;3.10;;
25946;SDS011;13745;51.470;9.894;2023-11-19T12:22:13;19.13;;;4.55;;
25946;SDS011;13745;51.470;9.894;2023-11-19T12:24:59;19.70;;;3.65;;
25946;SDS011;13745;51.470;9.894;2023-11-19T12:27:47;18.65;;;3.22;;
25946;SDS011;13745;51.470;9.894;2023-11-19T12:30:33;21.55;;;3.17;;
25946;SDS011;13745;51.470;9.894;2023-11-19T12:33:19;25.40;;;4.00;;
25946;SDS011;13745;51.470;9.894;2023-11-19T12:36:05;21.05;;;3.10;;
25946;SDS011;13745;51.470;9.894;2023-11-19T12:38:51;17.17;;;3.38;;
25946;SDS011;13745;51.470;9.894;2023-11-19T12:41:50;19.67;;;5.35;;
25946;SDS011;13745;51.470;9.894;2023-11-19T12:44:39;22.60;;;5.88;;
25946;SDS011;13745;51.470;9.894;2023-11-19T12:47:36;21.17;;;6.32;;
25946;SDS011;13745;51.470;9.894;2023-11-19T12:50:22;16.52;;;4.07;;
25946;SDS011;13745;51.470;9.894;2023-11-19T12:53:07;22.85;;;3.67;;
25946;SDS011;13745;51.470;9.894;2023-11-19T12:55:53;30.65;;;8.55;;
25946;SDS011;13745;51.470;9.894;2023-11-19T12:58:39;34.20;;;10.25;;
25946;SDS011;13745;51.470;9.894;2023-11-19T13:01:28;17.75;;;3.92;;
25946;SDS011;13745;51.470;9.894;2023-11-19T13:04:17;12.80;;;2.97;;
25946;SDS011;13745;51.470;9.894;2023-11-19T13:07:03;19.02;;;3.83;;
25946;SDS011;13745;51.470;9.894;2023-11-19T13:09:48;11.85;;;3.58;;
25946;SDS011;13745;51.470;9.894;2023-11-19T13:12:34;18.70;;;3.50;;
25946;SDS011;13745;51.470;9.894;2023-11-19T13:15:22;16.27;;;3.08;;
25946;SDS011;13745;51.470;9.894;2023-11-19T13:18:10;16.70;;;3.38;;
25946;SDS011;13745;51.470;9.894;2023-11-19T13:20:56;16.67;;;3.15;;
25946;SDS011;13745;51.470;9.894;2023-11-19T13:23:42;15.00;;;2.38;;
25946;SDS011;13745;51.470;9.894;2023-11-19T13:26:27;14.98;;;3.30;;
25946;SDS011;13745;51.470;9.894;2023-11-19T13:29:12;12.13;;;2.67;;
25946;SDS011;13745;51.470;9.894;2023-11-19T13:31:58;16.30;;;3.63;;
25946;SDS011;13745;51.470;9.894;2023-11-19T13:34:45;12.57;;;2.38;;
25946;SDS011;13745;51.470;9.894;2023-11-19T13:37:30;10.50;;;2.33;;
25946;SDS011;13745;51.470;9.894;2023-11-19T13:40:16;14.70;;;3.10;;
25946;SDS011;13745;51.470;9.894;2023-11-19T13:43:01;18.75;;;3.72;;
25946;SDS011;13745;51.470;9.894;2023-11-19T13:45:46;15.70;;;3.72;;
25946;SDS011;13745;51.470;9.894;2023-11-19T13:48:31;19.88;;;5.05;;
25946;SDS011;13745;51.470;9.894;2023-11-19T13:51:18;18.30;;;5.35;;
25946;SDS011;13745;51.470;9.894;2023-11-19T13:54:04;14.48;;;3.78;;
25946;SDS011;13745;51.470;9.894;2023-11-19T13:56:49;26.02;;;8.75;;
25946;SDS011;13745;51.470;9.894;2023-11-19T13:59:39;22.92;;;7.35;;
25946;SDS011;13745;51.470;9.894;2023-11-19T14:02:25;22.00;;;5.18;;
25946;SDS011;13745;51.470;9.894;2023-11-19T14:05:10;12.60;;;3.20;;
25946;SDS011;13745;51.470;9.894;2023-11-19T14:07:57;13.15;;;2.83;;
25946;SDS011;13745;51.470;9.894;2023-11-19T14:10:42;17.88;;;4.20;;
25946;SDS011;13745;51.470;9.894;2023-11-19T14:13:27;21.25;;;4.88;;
25946;SDS011;13745;51.470;9.894;2023-11-19T14:16:13;15.55;;;3.25;;
25946;SDS011;13745;51.470;9.894;2023-11-19T14:18:59;27.70;;;8.52;;
25946;SDS011;13745;51.470;9.894;2023-11-19T14:21:44;16.30;;;4.10;;
25946;SDS011;13745;51.470;9.894;2023-11-19T14:24:32;93.35;;;27.27;;
25946;SDS011;13745;51.470;9.894;2023-11-19T14:27:18;22.42;;;6.13;;
25946;SDS011;13745;51.470;9.894;2023-11-19T14:30:04;10.68;;;2.17;;
25946;SDS011;13745;51.470;9.894;2023-11-19T14:32:50;15.15;;;3.30;;
25946;SDS011;13745;51.470;9.894;2023-11-19T14:35:35;15.38;;;2.75;;
25946;SDS011;13745;51.470;9.894;2023-11-19T14:38:20;14.73;;;2.35;;
25946;SDS011;13745;51.470;9.894;2023-11-19T14:41:07;14.77;;;2.55;;
25946;SDS011;13745;51.470;9.894;2023-11-19T14:43:52;15.20;;;2.58;;
25946;SDS011;13745;51.470;9.894;2023-11-19T14:46:37;14.88;;;2.80;;
25946;SDS011;13745;51.470;9.894;2023-11-19T14:49:23;12.75;;;2.60;;
25946;SDS011;13745;51.470;9.894;2023-11-19T14:52:08;14.15;;;2.60;;
25946;SDS011;13745;51.470;9.894;2023-11-19T14:54:54;15.45;;;3.00;;
25946;SDS011;13745;51.470;9.894;2023-11-19T14:57:41;15.20;;;2.88;;
25946;SDS011;13745;51.470;9.894;2023-11-19T15:00:27;15.15;;;2.67;;
25946;SDS011;13745;51.470;9.894;2023-11-19T15:03:13;10.70;;;2.05;;
25946;SDS011;13745;51.470;9.894;2023-11-19T15:05:59;17.10;;;2.50;;
25946;SDS011;13745;51.470;9.894;2023-11-19T15:08:45;15.02;;;2.92;;
25946;SDS011;13745;51.470;9.894;2023-11-19T15:11:30;15.13;;;2.30;;
25946;SDS011;13745;51.470;9.894;2023-11-19T15:14:16;12.45;;;2.70;;
25946;SDS011;13745;51.470;9.894;2023-11-19T15:17:03;13.55;;;2.63;;
25946;SDS011;13745;51.470;9.894;2023-11-19T15:19:49;12.70;;;2.55;;
25946;SDS011;13745;51.470;9.894;2023-11-19T15:22:34;20.30;;;3.80;;
25946;SDS011;13745;51.470;9.894;2023-11-19T15:25:20;14.27;;;3.13;;
25946;SDS011;13745;51.470;9.894;2023-11-19T15:28:06;14.40;;;2.63;;
25946;SDS011;13745;51.470;9.894;2023-11-19T15:30:53;14.60;;;2.83;;
25946;SDS011;13745;51.470;9.894;2023-11-19T15:33:38;15.57;;;2.45;;
25946;SDS011;13745;51.470;9.894;2023-11-19T15:36:24;10.50;;;2.55;;
25946;SDS011;13745;51.470;9.894;2023-11-19T15:39:09;10.52;;;1.98;;
25946;SDS011;13745;51.470;9.894;2023-11-19T15:41:54;16.83;;;3.60;;
25946;SDS011;13745;51.470;9.894;2023-11-19T15:44:41;24.23;;;6.95;;
25946;SDS011;13745;51.470;9.894;2023-11-19T15:47:28;14.45;;;3.78;;
25946;SDS011;13745;51.470;9.894;2023-11-19T15:50:14;12.40;;;2.50;;
25946;SDS011;13745;51.470;9.894;2023-11-19T15:52:59;12.65;;;2.92;;
25946;SDS011;13745;51.470;9.894;2023-11-19T15:55:45;11.38;;;3.45;;
25946;SDS011;13745;51.470;9.894;2023-11-19T15:58:31;12.50;;;2.30;;
25946;SDS011;13745;51.470;9.894;2023-11-19T16:01:17;14.40;;;3.53;;
25946;SDS011;13745;51.470;9.894;2023-11-19T16:04:04;25.10;;;8.98;;
25946;SDS011;13745;51.470;9.894;2023-11-19T16:06:50;11.07;;;2.00;;
25946;SDS011;13745;51.470;9.894;2023-11-19T16:09:35;11.38;;;2.40;;
25946;SDS011;13745;51.470;9.894;2023-11-19T16:12:21;13.20;;;2.47;;
25946;SDS011;13745;51.470;9.894;2023-11-19T16:15:07;22.23;;;5.88;;
25946;SDS011;13745;51.470;9.894;2023-11-19T16:17:53;43.72;;;13.35;;
25946;SDS011;13745;51.470;9.894;2023-11-19T16:20:42;16.00;;;4.53;;
25946;SDS011;13745;51.470;9.894;2023-11-19T16:23:28;16.42;;;4.07;;
25946;SDS011;13745;51.470;9.894;2023-11-19T16:26:14;12.85;;;3.03;;
25946;SDS011;13745;51.470;9.894;2023-11-19T16:28:59;14.95;;;2.67;;
25946;SDS011;13745;51.470;9.894;2023-11-19T16:31:44;12.02;;;2.38;;
25946;SDS011;13745;51.470;9.894;2023-11-19T16:34:29;12.90;;;2.50;;
25946;SDS011;13745;51.470;9.894;2023-11-19T16:37:16;8.05;;;2.00;;